sensor_id;sensor_type;location;lat;lon;timestamp;pressure;altitude;pressure_sealevel;temperature;humidity
63088;BME280;49173;43.164;27.786;2022-09-09T00:06:28;100770.56;;;18.86;66.91
63088;BME280;49173;43.164;27.786;2022-09-09T00:11:34;100752.88;;;18.80;66.90
63088;BME280;49173;43.164;27.786;2022-09-09T00:14:03;100758.22;;;18.82;66.94
63088;BME280;49173;43.164;27.786;2022-09-09T00:16:39;100755.59;;;18.80;66.97
63088;BME280;49173;43.164;27.786;2022-09-09T00:19:28;100753.66;;;18.82;67.06
63088;BME280;49173;43.164;27.786;2022-09-09T00:24:44;100755.97;;;18.87;66.94
63088;BME280;49173;43.164;27.786;2022-09-09T00:27:21;100755.97;;;18.87;66.92
63088;BME280;49173;43.164;27.786;2022-09-09T00:32:46;100755.59;;;18.80;67.10
63088;BME280;49173;43.164;27.786;2022-09-09T00:37:46;100753.03;;;18.67;67.20
63088;BME280;49173;43.164;27.786;2022-09-09T00:40:35;100754.41;;;18.62;67.52
63088;BME280;49173;43.164;27.786;2022-09-09T00:43:36;100756.13;;;18.63;67.59
63088;BME280;49173;43.164;27.786;2022-09-09T00:46:09;100753.91;;;18.57;67.69
63088;BME280;49173;43.164;27.786;2022-09-09T00:48:44;100750.81;;;18.50;67.91
63088;BME280;49173;43.164;27.786;2022-09-09T00:57:16;100737.13;;;18.41;68.46
63088;BME280;49173;43.164;27.786;2022-09-09T01:00:32;100738.13;;;18.39;68.46
63088;BME280;49173;43.164;27.786;2022-09-09T01:05:35;100737.38;;;18.37;68.84
63088;BME280;49173;43.164;27.786;2022-09-09T01:08:15;100725.03;;;18.33;69.23
63088;BME280;49173;43.164;27.786;2022-09-09T01:10:45;100731.34;;;18.34;69.29
63088;BME280;49173;43.164;27.786;2022-09-09T01:13:31;100735.91;;;18.33;69.42
63088;BME280;49173;43.164;27.786;2022-09-09T01:16:01;100734.91;;;18.34;69.50
63088;BME280;49173;43.164;27.786;2022-09-09T01:18:33;100740.34;;;18.34;69.62
63088;BME280;49173;43.164;27.786;2022-09-09T01:21:20;100740.47;;;18.33;69.75
63088;BME280;49173;43.164;27.786;2022-09-09T01:26:42;100746.63;;;18.24;69.45
63088;BME280;49173;43.164;27.786;2022-09-09T01:29:10;100743.56;;;18.17;69.52
63088;BME280;49173;43.164;27.786;2022-09-09T01:31:50;100748.25;;;18.15;69.56
63088;BME280;49173;43.164;27.786;2022-09-09T01:34:17;100754.03;;;18.10;69.97
63088;BME280;49173;43.164;27.786;2022-09-09T01:39:19;100743.69;;;18.04;70.33
63088;BME280;49173;43.164;27.786;2022-09-09T01:41:46;100743.78;;;18.03;70.49
63088;BME280;49173;43.164;27.786;2022-09-09T01:44:12;100747.38;;;18.03;70.75
63088;BME280;49173;43.164;27.786;2022-09-09T01:46:38;100753.66;;;18.04;70.62
63088;BME280;49173;43.164;27.786;2022-09-09T01:49:06;100741.84;;;18.05;70.83
63088;BME280;49173;43.164;27.786;2022-09-09T01:51:35;100729.00;;;18.07;71.07
63088;BME280;49173;43.164;27.786;2022-09-09T01:54:02;100727.28;;;18.06;71.11
63088;BME280;49173;43.164;27.786;2022-09-09T01:56:39;100739.84;;;18.07;71.06
63088;BME280;49173;43.164;27.786;2022-09-09T02:04:48;100746.53;;;18.14;71.56
63088;BME280;49173;43.164;27.786;2022-09-09T02:07:39;100743.56;;;18.17;71.83
63088;BME280;49173;43.164;27.786;2022-09-09T02:10:19;100743.44;;;18.19;72.09
63088;BME280;49173;43.164;27.786;2022-09-09T02:12:50;100742.56;;;18.18;72.13
63088;BME280;49173;43.164;27.786;2022-09-09T02:15:39;100747.66;;;18.11;71.94
63088;BME280;49173;43.164;27.786;2022-09-09T02:18:18;100739.00;;;18.06;72.38
63088;BME280;49173;43.164;27.786;2022-09-09T02:20:49;100739.22;;;18.03;72.48
63088;BME280;49173;43.164;27.786;2022-09-09T02:23:17;100734.66;;;18.04;72.99
63088;BME280;49173;43.164;27.786;2022-09-09T02:25:44;100748.25;;;18.04;73.03
63088;BME280;49173;43.164;27.786;2022-09-09T02:28:13;100744.44;;;18.06;73.04
63088;BME280;49173;43.164;27.786;2022-09-09T02:30:42;100743.56;;;18.06;73.20
63088;BME280;49173;43.164;27.786;2022-09-09T02:33:10;100736.41;;;18.05;73.11
63088;BME280;49173;43.164;27.786;2022-09-09T02:35:39;100731.94;;;18.04;73.19
63088;BME280;49173;43.164;27.786;2022-09-09T02:38:11;100746.50;;;18.03;73.30
63088;BME280;49173;43.164;27.786;2022-09-09T02:40:38;100752.94;;;18.02;73.20
63088;BME280;49173;43.164;27.786;2022-09-09T02:43:04;100740.34;;;18.01;73.23
63088;BME280;49173;43.164;27.786;2022-09-09T02:45:50;100746.63;;;18.01;73.39
63088;BME280;49173;43.164;27.786;2022-09-09T02:48:29;100745.91;;;17.99;73.34
63088;BME280;49173;43.164;27.786;2022-09-09T02:51:06;100744.06;;;18.00;73.43
63088;BME280;49173;43.164;27.786;2022-09-09T02:56:22;100741.09;;;17.92;73.38
63088;BME280;49173;43.164;27.786;2022-09-09T02:58:51;100746.53;;;17.92;73.23
63088;BME280;49173;43.164;27.786;2022-09-09T03:01:17;100738.84;;;17.86;73.30
63088;BME280;49173;43.164;27.786;2022-09-09T03:03:43;100752.78;;;17.81;73.70
63088;BME280;49173;43.164;27.786;2022-09-09T03:06:09;100750.06;;;17.81;73.89
63088;BME280;49173;43.164;27.786;2022-09-09T03:08:37;100744.78;;;17.79;73.95
63088;BME280;49173;43.164;27.786;2022-09-09T03:11:03;100743.19;;;17.77;73.73
63088;BME280;49173;43.164;27.786;2022-09-09T03:13:29;100742.31;;;17.76;73.87
63088;BME280;49173;43.164;27.786;2022-09-09T03:15:57;100742.53;;;17.73;73.97
63088;BME280;49173;43.164;27.786;2022-09-09T03:18:31;100746.47;;;17.69;74.06
63088;BME280;49173;43.164;27.786;2022-09-09T03:20:57;100751.91;;;17.69;73.69
63088;BME280;49173;43.164;27.786;2022-09-09T03:23:25;100749.66;;;17.63;73.82
63088;BME280;49173;43.164;27.786;2022-09-09T03:25:50;100742.59;;;17.61;73.85
63088;BME280;49173;43.164;27.786;2022-09-09T03:28:17;100754.19;;;17.51;73.90
63088;BME280;49173;43.164;27.786;2022-09-09T03:30:43;100754.53;;;17.47;73.84
63088;BME280;49173;43.164;27.786;2022-09-09T03:33:09;100749.34;;;17.44;74.26
63088;BME280;49173;43.164;27.786;2022-09-09T03:35:35;100754.91;;;17.42;74.69
63088;BME280;49173;43.164;27.786;2022-09-09T03:38:01;100758.34;;;17.44;74.70
63088;BME280;49173;43.164;27.786;2022-09-09T03:40:27;100757.50;;;17.44;74.61
63088;BME280;49173;43.164;27.786;2022-09-09T03:42:53;100757.50;;;17.44;74.55
63088;BME280;49173;43.164;27.786;2022-09-09T03:45:18;100752.41;;;17.39;74.76
63088;BME280;49173;43.164;27.786;2022-09-09T03:47:44;100749.09;;;17.36;74.74
63088;BME280;49173;43.164;27.786;2022-09-09T03:50:10;100752.00;;;17.33;74.97
63088;BME280;49173;43.164;27.786;2022-09-09T03:52:37;100747.06;;;17.26;75.11
63088;BME280;49173;43.164;27.786;2022-09-09T03:55:05;100747.19;;;17.25;75.24
63088;BME280;49173;43.164;27.786;2022-09-09T03:57:31;100742.88;;;17.22;75.59
63088;BME280;49173;43.164;27.786;2022-09-09T03:59:57;100746.09;;;17.27;75.65
63088;BME280;49173;43.164;27.786;2022-09-09T04:02:26;100745.84;;;17.30;76.22
63088;BME280;49173;43.164;27.786;2022-09-09T04:04:52;100750.16;;;17.33;76.21
63088;BME280;49173;43.164;27.786;2022-09-09T04:07:17;100756.25;;;17.37;76.56
63088;BME280;49173;43.164;27.786;2022-09-09T04:09:43;100757.75;;;17.41;76.76
63088;BME280;49173;43.164;27.786;2022-09-09T04:12:09;100752.69;;;17.47;76.74
63088;BME280;49173;43.164;27.786;2022-09-09T04:14:38;100747.88;;;17.51;76.79
63088;BME280;49173;43.164;27.786;2022-09-09T04:17:04;100755.44;;;17.58;76.74
63088;BME280;49173;43.164;27.786;2022-09-09T04:19:32;100755.13;;;17.74;76.72
63088;BME280;49173;43.164;27.786;2022-09-09T04:21:58;100757.38;;;18.03;75.97
63088;BME280;49173;43.164;27.786;2022-09-09T04:24:24;100753.66;;;18.49;74.91
63088;BME280;49173;43.164;27.786;2022-09-09T04:26:52;100755.06;;;19.62;73.01
63088;BME280;49173;43.164;27.786;2022-09-09T04:29:18;100748.31;;;21.17;66.13
63088;BME280;49173;43.164;27.786;2022-09-09T04:31:44;100749.22;;;22.50;61.28
63088;BME280;49173;43.164;27.786;2022-09-09T04:34:10;100746.00;;;23.27;57.61
63088;BME280;49173;43.164;27.786;2022-09-09T04:36:35;100744.88;;;23.38;57.23
63088;BME280;49173;43.164;27.786;2022-09-09T04:39:02;100754.66;;;23.23;58.10
63088;BME280;49173;43.164;27.786;2022-09-09T04:41:28;100752.94;;;23.04;58.45
63088;BME280;49173;43.164;27.786;2022-09-09T04:43:54;100752.97;;;22.77;59.35
63088;BME280;49173;43.164;27.786;2022-09-09T04:46:21;100747.09;;;22.44;60.54
63088;BME280;49173;43.164;27.786;2022-09-09T04:48:49;100747.38;;;22.13;62.17
63088;BME280;49173;43.164;27.786;2022-09-09T04:51:16;100744.72;;;21.75;63.40
63088;BME280;49173;43.164;27.786;2022-09-09T04:53:42;100743.44;;;21.59;63.33
63088;BME280;49173;43.164;27.786;2022-09-09T04:56:10;100746.91;;;21.32;64.41
63088;BME280;49173;43.164;27.786;2022-09-09T04:58:37;100751.78;;;21.19;64.48
63088;BME280;49173;43.164;27.786;2022-09-09T05:01:10;100754.50;;;21.09;64.45
63088;BME280;49173;43.164;27.786;2022-09-09T05:03:36;100754.63;;;20.98;66.34
63088;BME280;49173;43.164;27.786;2022-09-09T05:06:08;100755.03;;;20.84;65.75
63088;BME280;49173;43.164;27.786;2022-09-09T05:08:38;100754.72;;;20.77;67.50
63088;BME280;49173;43.164;27.786;2022-09-09T05:11:19;100758.88;;;20.72;69.08
63088;BME280;49173;43.164;27.786;2022-09-09T05:13:46;100749.09;;;20.60;67.58
63088;BME280;49173;43.164;27.786;2022-09-09T05:16:14;100752.56;;;20.62;67.90
63088;BME280;49173;43.164;27.786;2022-09-09T05:18:43;100749.53;;;20.65;67.82
63088;BME280;49173;43.164;27.786;2022-09-09T05:21:10;100747.25;;;20.70;67.57
63088;BME280;49173;43.164;27.786;2022-09-09T05:23:36;100742.69;;;20.80;67.70
63088;BME280;49173;43.164;27.786;2022-09-09T05:26:03;100732.94;;;20.87;67.42
63088;BME280;49173;43.164;27.786;2022-09-09T05:28:29;100740.84;;;20.90;66.66
63088;BME280;49173;43.164;27.786;2022-09-09T05:31:04;100735.53;;;20.98;67.29
63088;BME280;49173;43.164;27.786;2022-09-09T05:33:31;100732.22;;;21.04;67.19
63088;BME280;49173;43.164;27.786;2022-09-09T05:35:59;100723.31;;;21.12;66.76
63088;BME280;49173;43.164;27.786;2022-09-09T05:38:27;100730.78;;;21.20;66.73
63088;BME280;49173;43.164;27.786;2022-09-09T05:40:53;100731.94;;;21.27;67.53
63088;BME280;49173;43.164;27.786;2022-09-09T05:43:19;100724.22;;;21.32;66.55
63088;BME280;49173;43.164;27.786;2022-09-09T05:45:47;100735.41;;;21.38;66.16
63088;BME280;49173;43.164;27.786;2022-09-09T05:48:16;100729.38;;;21.45;66.31
63088;BME280;49173;43.164;27.786;2022-09-09T05:50:42;100728.66;;;21.52;66.17
63088;BME280;49173;43.164;27.786;2022-09-09T05:53:09;100733.22;;;21.61;66.25
63088;BME280;49173;43.164;27.786;2022-09-09T05:55:36;100725.31;;;21.68;66.46
63088;BME280;49173;43.164;27.786;2022-09-09T05:58:02;100720.81;;;21.77;66.20
63088;BME280;49173;43.164;27.786;2022-09-09T06:00:28;100727.00;;;21.88;66.60
63088;BME280;49173;43.164;27.786;2022-09-09T06:02:57;100721.47;;;21.98;66.47
63088;BME280;49173;43.164;27.786;2022-09-09T06:05:22;100715.88;;;22.09;65.96
63088;BME280;49173;43.164;27.786;2022-09-09T06:07:52;100717.41;;;22.22;65.59
63088;BME280;49173;43.164;27.786;2022-09-09T06:10:18;100716.19;;;22.34;65.01
63088;BME280;49173;43.164;27.786;2022-09-09T06:12:44;100717.28;;;22.41;64.80
63088;BME280;49173;43.164;27.786;2022-09-09T06:15:15;100710.59;;;22.53;64.23
63088;BME280;49173;43.164;27.786;2022-09-09T06:17:41;100717.59;;;22.65;63.43
63088;BME280;49173;43.164;27.786;2022-09-09T06:20:07;100721.84;;;22.78;63.15
63088;BME280;49173;43.164;27.786;2022-09-09T06:22:34;100729.00;;;22.88;62.14
63088;BME280;49173;43.164;27.786;2022-09-09T06:25:00;100722.75;;;22.96;60.88
63088;BME280;49173;43.164;27.786;2022-09-09T06:27:27;100730.56;;;23.09;61.19
63088;BME280;49173;43.164;27.786;2022-09-09T06:29:54;100727.59;;;23.20;60.95
63088;BME280;49173;43.164;27.786;2022-09-09T06:32:19;100730.94;;;23.32;59.97
63088;BME280;49173;43.164;27.786;2022-09-09T06:34:47;100730.03;;;23.41;59.32
63088;BME280;49173;43.164;27.786;2022-09-09T06:37:14;100731.97;;;23.48;59.14
63088;BME280;49173;43.164;27.786;2022-09-09T06:39:41;100741.78;;;23.59;59.30
63088;BME280;49173;43.164;27.786;2022-09-09T06:42:07;100750.09;;;23.67;57.77
63088;BME280;49173;43.164;27.786;2022-09-09T06:44:33;100749.47;;;23.73;57.09
63088;BME280;49173;43.164;27.786;2022-09-09T06:47:00;100746.47;;;23.84;57.23
63088;BME280;49173;43.164;27.786;2022-09-09T06:49:25;100752.19;;;23.91;54.68
63088;BME280;49173;43.164;27.786;2022-09-09T06:51:52;100752.41;;;23.98;54.62
63088;BME280;49173;43.164;27.786;2022-09-09T06:54:18;100738.72;;;24.06;54.81
63088;BME280;49173;43.164;27.786;2022-09-09T06:56:45;100743.78;;;24.19;53.22
63088;BME280;49173;43.164;27.786;2022-09-09T06:59:11;100745.16;;;24.23;52.84
63088;BME280;49173;43.164;27.786;2022-09-09T07:01:42;100740.72;;;24.30;50.85
63088;BME280;49173;43.164;27.786;2022-09-09T07:04:12;100730.34;;;24.33;49.34
63088;BME280;49173;43.164;27.786;2022-09-09T07:06:44;100732.75;;;24.36;47.85
63088;BME280;49173;43.164;27.786;2022-09-09T07:09:14;100733.81;;;24.44;49.05
63088;BME280;49173;43.164;27.786;2022-09-09T07:11:46;100740.34;;;24.51;49.49
63088;BME280;49173;43.164;27.786;2022-09-09T07:14:13;100733.81;;;24.52;50.21
63088;BME280;49173;43.164;27.786;2022-09-09T07:16:40;100736.44;;;24.53;48.15
63088;BME280;49173;43.164;27.786;2022-09-09T07:19:07;100730.78;;;24.55;49.14
63088;BME280;49173;43.164;27.786;2022-09-09T07:21:33;100737.31;;;24.62;48.75
63088;BME280;49173;43.164;27.786;2022-09-09T07:24:00;100739.41;;;24.68;49.33
63088;BME280;49173;43.164;27.786;2022-09-09T07:26:30;100740.44;;;24.75;48.93
63088;BME280;49173;43.164;27.786;2022-09-09T07:28:56;100737.72;;;24.83;48.51
63088;BME280;49173;43.164;27.786;2022-09-09T07:31:28;100737.38;;;24.86;48.15
63088;BME280;49173;43.164;27.786;2022-09-09T07:33:58;100737.06;;;24.89;48.76
63088;BME280;49173;43.164;27.786;2022-09-09T07:36:28;100736.19;;;24.89;49.49
63088;BME280;49173;43.164;27.786;2022-09-09T07:38:56;100739.13;;;24.96;49.26
63088;BME280;49173;43.164;27.786;2022-09-09T07:41:26;100733.09;;;25.00;49.32
63088;BME280;49173;43.164;27.786;2022-09-09T07:43:53;100737.97;;;25.06;49.87
63088;BME280;49173;43.164;27.786;2022-09-09T07:46:23;100738.16;;;25.13;49.91
63088;BME280;49173;43.164;27.786;2022-09-09T07:48:53;100735.59;;;25.19;48.90
63088;BME280;49173;43.164;27.786;2022-09-09T07:51:29;100737.13;;;25.22;47.77
63088;BME280;49173;43.164;27.786;2022-09-09T07:53:58;100740.41;;;25.26;46.48
63088;BME280;49173;43.164;27.786;2022-09-09T07:56:25;100737.66;;;25.26;45.23
63088;BME280;49173;43.164;27.786;2022-09-09T07:58:53;100740.41;;;25.34;44.40
63088;BME280;49173;43.164;27.786;2022-09-09T08:01:29;100737.84;;;25.40;45.00
63088;BME280;49173;43.164;27.786;2022-09-09T08:03:58;100725.13;;;25.47;45.42
63088;BME280;49173;43.164;27.786;2022-09-09T08:06:26;100733.53;;;25.54;43.05
63088;BME280;49173;43.164;27.786;2022-09-09T08:08:52;100729.41;;;25.58;44.15
63088;BME280;49173;43.164;27.786;2022-09-09T08:11:21;100720.81;;;25.61;43.59
63088;BME280;49173;43.164;27.786;2022-09-09T08:13:49;100715.81;;;25.65;44.43
63088;BME280;49173;43.164;27.786;2022-09-09T08:16:24;100712.38;;;25.71;43.98
63088;BME280;49173;43.164;27.786;2022-09-09T08:18:51;100702.41;;;25.70;42.11
63088;BME280;49173;43.164;27.786;2022-09-09T08:21:20;100709.81;;;25.78;42.92
63088;BME280;49173;43.164;27.786;2022-09-09T08:23:49;100714.13;;;25.88;42.03
63088;BME280;49173;43.164;27.786;2022-09-09T08:26:23;100700.00;;;25.91;41.76
63088;BME280;49173;43.164;27.786;2022-09-09T08:28:54;100688.13;;;25.99;40.76
63088;BME280;49173;43.164;27.786;2022-09-09T08:31:30;100682.56;;;26.07;41.24
63088;BME280;49173;43.164;27.786;2022-09-09T08:33:57;100683.09;;;26.11;43.01
63088;BME280;49173;43.164;27.786;2022-09-09T08:36:26;100682.72;;;26.14;44.56
63088;BME280;49173;43.164;27.786;2022-09-09T08:38:55;100680.84;;;26.14;44.82
63088;BME280;49173;43.164;27.786;2022-09-09T08:47:39;100672.06;;;26.19;45.17
63088;BME280;49173;43.164;27.786;2022-09-09T08:50:18;100666.88;;;26.24;43.59
63088;BME280;49173;43.164;27.786;2022-09-09T08:55:53;100679.03;;;26.38;46.61
63088;BME280;49173;43.164;27.786;2022-09-09T09:04:01;100660.97;;;26.35;45.90
63088;BME280;49173;43.164;27.786;2022-09-09T09:09:03;100672.03;;;26.27;47.30
63088;BME280;49173;43.164;27.786;2022-09-09T09:11:39;100657.22;;;26.36;46.03
63088;BME280;49173;43.164;27.786;2022-09-09T09:14:14;100658.91;;;26.45;46.99
63088;BME280;49173;43.164;27.786;2022-09-09T09:19:14;100649.56;;;26.54;47.28
63088;BME280;49173;43.164;27.786;2022-09-09T09:21:49;100661.56;;;26.62;46.33
63088;BME280;49173;43.164;27.786;2022-09-09T09:24:20;100653.97;;;26.64;45.75
63088;BME280;49173;43.164;27.786;2022-09-09T09:26:46;100663.97;;;26.65;45.63
63088;BME280;49173;43.164;27.786;2022-09-09T09:29:19;100667.38;;;26.67;46.05
63088;BME280;49173;43.164;27.786;2022-09-09T09:31:55;100673.03;;;26.73;45.88
63088;BME280;49173;43.164;27.786;2022-09-09T09:34:23;100669.09;;;26.68;45.52
63088;BME280;49173;43.164;27.786;2022-09-09T09:39:32;100679.78;;;26.63;45.19
63088;BME280;49173;43.164;27.786;2022-09-09T09:42:13;100678.97;;;26.54;44.92
63088;BME280;49173;43.164;27.786;2022-09-09T09:44:41;100683.56;;;26.62;45.85
63088;BME280;49173;43.164;27.786;2022-09-09T09:47:12;100690.44;;;26.66;45.79
63088;BME280;49173;43.164;27.786;2022-09-09T09:49:39;100662.72;;;26.67;45.34
63088;BME280;49173;43.164;27.786;2022-09-09T09:52:06;100660.44;;;26.71;45.26
63088;BME280;49173;43.164;27.786;2022-09-09T09:54:37;100646.03;;;26.69;44.80
63088;BME280;49173;43.164;27.786;2022-09-09T09:57:17;100649.94;;;26.74;45.23
63088;BME280;49173;43.164;27.786;2022-09-09T09:59:44;100635.78;;;26.77;45.46
63088;BME280;49173;43.164;27.786;2022-09-09T10:02:24;100648.91;;;26.75;45.48
63088;BME280;49173;43.164;27.786;2022-09-09T10:05:19;100655.25;;;26.76;45.47
63088;BME280;49173;43.164;27.786;2022-09-09T10:07:46;100650.63;;;26.76;45.12
63088;BME280;49173;43.164;27.786;2022-09-09T10:10:24;100659.06;;;26.75;45.28
63088;BME280;49173;43.164;27.786;2022-09-09T10:13:18;100654.53;;;26.82;44.90
63088;BME280;49173;43.164;27.786;2022-09-09T10:19:18;100642.13;;;26.86;45.07
63088;BME280;49173;43.164;27.786;2022-09-09T10:30:12;100642.00;;;27.02;45.46
63088;BME280;49173;43.164;27.786;2022-09-09T10:33:03;100644.25;;;27.07;44.34
63088;BME280;49173;43.164;27.786;2022-09-09T10:38:40;100635.72;;;27.17;44.78
63088;BME280;49173;43.164;27.786;2022-09-09T10:46:52;100641.13;;;27.25;44.57
63088;BME280;49173;43.164;27.786;2022-09-09T10:49:27;100637.84;;;27.29;45.20
63088;BME280;49173;43.164;27.786;2022-09-09T10:55:16;100633.84;;;27.32;45.38
63088;BME280;49173;43.164;27.786;2022-09-09T10:57:44;100626.13;;;27.27;44.34
63088;BME280;49173;43.164;27.786;2022-09-09T11:00:21;100629.06;;;27.26;45.08
63088;BME280;49173;43.164;27.786;2022-09-09T11:02:59;100634.88;;;27.31;44.88
63088;BME280;49173;43.164;27.786;2022-09-09T11:08:21;100630.88;;;27.33;44.80
63088;BME280;49173;43.164;27.786;2022-09-09T11:16:47;100632.53;;;27.28;45.46
63088;BME280;49173;43.164;27.786;2022-09-09T11:19:40;100633.09;;;27.38;45.28
63088;BME280;49173;43.164;27.786;2022-09-09T11:22:37;100629.09;;;27.41;44.70
63088;BME280;49173;43.164;27.786;2022-09-09T11:25:22;100639.09;;;27.42;44.74
63088;BME280;49173;43.164;27.786;2022-09-09T11:28:21;100628.03;;;27.27;45.62
63088;BME280;49173;43.164;27.786;2022-09-09T11:34:02;100628.38;;;27.09;44.59
63088;BME280;49173;43.164;27.786;2022-09-09T11:42:20;100624.69;;;27.17;44.36
63088;BME280;49173;43.164;27.786;2022-09-09T11:44:46;100636.69;;;27.24;45.25
63088;BME280;49173;43.164;27.786;2022-09-09T11:47:27;100626.94;;;27.36;44.79
63088;BME280;49173;43.164;27.786;2022-09-09T11:52:43;100613.34;;;27.49;43.25
63088;BME280;49173;43.164;27.786;2022-09-09T11:55:27;100607.84;;;27.49;44.19
63088;BME280;49173;43.164;27.786;2022-09-09T11:58:02;100608.84;;;27.48;43.97
63088;BME280;49173;43.164;27.786;2022-09-09T12:00:36;100603.44;;;27.40;44.56
63088;BME280;49173;43.164;27.786;2022-09-09T12:03:06;100614.38;;;27.48;45.37
63088;BME280;49173;43.164;27.786;2022-09-09T12:05:50;100617.91;;;27.57;44.60
63088;BME280;49173;43.164;27.786;2022-09-09T12:08:26;100613.25;;;27.57;43.45
63088;BME280;49173;43.164;27.786;2022-09-09T12:10:59;100602.69;;;27.61;44.66
63088;BME280;49173;43.164;27.786;2022-09-09T12:13:29;100594.19;;;27.71;45.44
63088;BME280;49173;43.164;27.786;2022-09-09T12:16:37;100604.38;;;27.70;44.40
63088;BME280;49173;43.164;27.786;2022-09-09T12:19:15;100594.63;;;27.59;44.16
63088;BME280;49173;43.164;27.786;2022-09-09T12:22:07;100587.09;;;27.53;44.49
63088;BME280;49173;43.164;27.786;2022-09-09T12:24:50;100592.16;;;27.50;45.58
63088;BME280;49173;43.164;27.786;2022-09-09T12:27:27;100588.44;;;27.57;46.40
63088;BME280;49173;43.164;27.786;2022-09-09T12:30:08;100586.34;;;27.59;44.52
63088;BME280;49173;43.164;27.786;2022-09-09T12:32:35;100596.41;;;27.52;44.21
63088;BME280;49173;43.164;27.786;2022-09-09T12:35:20;100595.28;;;27.61;44.88
63088;BME280;49173;43.164;27.786;2022-09-09T12:37:53;100579.72;;;27.69;43.02
63088;BME280;49173;43.164;27.786;2022-09-09T12:40:27;100579.53;;;27.70;41.83
63088;BME280;49173;43.164;27.786;2022-09-09T12:42:54;100583.25;;;27.77;42.78
63088;BME280;49173;43.164;27.786;2022-09-09T12:45:27;100582.47;;;27.83;42.70
63088;BME280;49173;43.164;27.786;2022-09-09T12:48:03;100579.91;;;27.82;42.54
63088;BME280;49173;43.164;27.786;2022-09-09T12:50:44;100578.78;;;27.91;42.25
63088;BME280;49173;43.164;27.786;2022-09-09T12:53:31;100573.25;;;27.91;42.34
63088;BME280;49173;43.164;27.786;2022-09-09T12:56:05;100570.38;;;27.70;42.35
63088;BME280;49173;43.164;27.786;2022-09-09T12:58:38;100570.09;;;27.64;42.09
63088;BME280;49173;43.164;27.786;2022-09-09T13:01:06;100570.66;;;27.60;40.41
63088;BME280;49173;43.164;27.786;2022-09-09T13:03:44;100562.88;;;27.49;42.28
63088;BME280;49173;43.164;27.786;2022-09-09T13:06:13;100572.25;;;27.54;43.99
63088;BME280;49173;43.164;27.786;2022-09-09T13:08:43;100572.66;;;27.51;44.08
63088;BME280;49173;43.164;27.786;2022-09-09T13:11:26;100574.38;;;27.52;44.61
63088;BME280;49173;43.164;27.786;2022-09-09T13:13:56;100575.00;;;27.40;44.64
63088;BME280;49173;43.164;27.786;2022-09-09T13:16:34;100583.38;;;27.31;46.54
63088;BME280;49173;43.164;27.786;2022-09-09T13:19:35;100576.16;;;27.30;46.79
63088;BME280;49173;43.164;27.786;2022-09-09T13:21:54;100560.06;;;27.34;45.66
63088;BME280;49173;43.164;27.786;2022-09-09T13:26:58;100572.06;;;27.41;46.10
63088;BME280;49173;43.164;27.786;2022-09-09T13:29:26;100562.84;;;27.34;47.28
63088;BME280;49173;43.164;27.786;2022-09-09T13:31:53;100557.31;;;27.34;46.60
63088;BME280;49173;43.164;27.786;2022-09-09T13:34:37;100557.59;;;27.24;46.51
63088;BME280;49173;43.164;27.786;2022-09-09T13:37:14;100548.19;;;27.33;45.79
63088;BME280;49173;43.164;27.786;2022-09-09T13:39:51;100553.91;;;27.32;46.41
63088;BME280;49173;43.164;27.786;2022-09-09T13:42:25;100547.72;;;27.15;46.68
63088;BME280;49173;43.164;27.786;2022-09-09T13:44:51;100545.81;;;27.16;45.06
63088;BME280;49173;43.164;27.786;2022-09-09T13:47:20;100543.06;;;27.16;45.42
63088;BME280;49173;43.164;27.786;2022-09-09T13:49:46;100554.19;;;27.22;47.13
63088;BME280;49173;43.164;27.786;2022-09-09T13:52:14;100560.66;;;27.29;47.45
63088;BME280;49173;43.164;27.786;2022-09-09T13:54:43;100550.50;;;27.30;46.17
63088;BME280;49173;43.164;27.786;2022-09-09T13:57:17;100547.53;;;27.17;47.30
63088;BME280;49173;43.164;27.786;2022-09-09T13:59:45;100542.50;;;26.97;45.94
63088;BME280;49173;43.164;27.786;2022-09-09T14:02:11;100537.38;;;26.94;45.83
63088;BME280;49173;43.164;27.786;2022-09-09T14:04:37;100541.06;;;26.87;46.65
63088;BME280;49173;43.164;27.786;2022-09-09T14:07:03;100543.63;;;26.88;47.10
63088;BME280;49173;43.164;27.786;2022-09-09T14:09:29;100528.34;;;26.86;47.16
63088;BME280;49173;43.164;27.786;2022-09-09T14:11:54;100523.91;;;26.99;46.97
63088;BME280;49173;43.164;27.786;2022-09-09T14:14:20;100523.41;;;26.96;48.27
63088;BME280;49173;43.164;27.786;2022-09-09T14:16:46;100517.91;;;26.96;48.44
63088;BME280;49173;43.164;27.786;2022-09-09T14:19:12;100525.56;;;27.08;48.29
63088;BME280;49173;43.164;27.786;2022-09-09T14:21:38;100521.09;;;27.07;47.82
63088;BME280;49173;43.164;27.786;2022-09-09T14:24:04;100511.25;;;26.90;48.06
63088;BME280;49173;43.164;27.786;2022-09-09T14:26:31;100516.84;;;26.82;47.78
63088;BME280;49173;43.164;27.786;2022-09-09T14:28:58;100512.06;;;26.76;47.96
63088;BME280;49173;43.164;27.786;2022-09-09T14:31:25;100513.19;;;26.67;47.93
63088;BME280;49173;43.164;27.786;2022-09-09T14:33:52;100511.56;;;26.58;49.67
63088;BME280;49173;43.164;27.786;2022-09-09T14:36:19;100511.09;;;26.69;48.70
63088;BME280;49173;43.164;27.786;2022-09-09T14:38:44;100515.31;;;26.79;49.29
63088;BME280;49173;43.164;27.786;2022-09-09T14:41:11;100516.44;;;26.85;49.67
63088;BME280;49173;43.164;27.786;2022-09-09T14:43:38;100515.47;;;26.78;50.25
63088;BME280;49173;43.164;27.786;2022-09-09T14:46:10;100508.66;;;26.74;51.26
63088;BME280;49173;43.164;27.786;2022-09-09T14:48:36;100511.25;;;26.52;51.77